Wheeler, Texas
Current Conditions -  °F | °C
As of 8:55 PM on Wednesday 26 Nov 2014 (Local Time) from KHHF Reporting Station
Clear Clear  
Wind Chill: 32°   Ceiling: Unl
Heat Index: 32°   Visibility: NA
Dew Point: 21°   Wind: 0mph
Humidity: 64%   Direction: NA
Pressure: 30.39"   Gusts: NA
Location:  35.45°N, 100.27°W
Report Text: KHHF 270255Z AUTO 00000KT CLR 00/M06 A3039 RMK AO2 T00001060 PWINO
Loading
Personal Weather Stations






























Interactive Weather Map New forecast layout! Learn more

10-Day Weather Forecast

Advertisements
Track Severe Weather on mobile